sensor_id;sensor_type;location;lat;lon;timestamp;P1;durP1;ratioP1;P2;durP2;ratioP2
38182;SDS011;23991;52.430;10.586;2023-07-13T00:02:23;3.85;;;2.10;;
38182;SDS011;23991;52.430;10.586;2023-07-13T00:04:49;8.32;;;2.70;;
38182;SDS011;23991;52.430;10.586;2023-07-13T00:07:15;5.05;;;2.28;;
38182;SDS011;23991;52.430;10.586;2023-07-13T00:09:47;3.63;;;2.30;;
38182;SDS011;23991;52.430;10.586;2023-07-13T00:12:30;5.30;;;2.15;;
38182;SDS011;23991;52.430;10.586;2023-07-13T00:14:58;4.97;;;2.38;;
38182;SDS011;23991;52.430;10.586;2023-07-13T00:17:25;4.03;;;2.20;;
38182;SDS011;23991;52.430;10.586;2023-07-13T00:19:54;7.55;;;2.35;;
38182;SDS011;23991;52.430;10.586;2023-07-13T00:22:21;3.38;;;1.95;;
38182;SDS011;23991;52.430;10.586;2023-07-13T00:24:47;3.78;;;1.95;;
38182;SDS011;23991;52.430;10.586;2023-07-13T00:27:12;3.95;;;1.80;;
38182;SDS011;23991;52.430;10.586;2023-07-13T00:29:39;4.72;;;2.05;;
38182;SDS011;23991;52.430;10.586;2023-07-13T00:32:05;4.47;;;1.77;;
38182;SDS011;23991;52.430;10.586;2023-07-13T00:34:32;4.40;;;2.17;;
38182;SDS011;23991;52.430;10.586;2023-07-13T00:36:58;3.97;;;1.88;;
38182;SDS011;23991;52.430;10.586;2023-07-13T00:39:24;3.90;;;2.60;;
38182;SDS011;23991;52.430;10.586;2023-07-13T00:41:52;4.85;;;2.00;;
38182;SDS011;23991;52.430;10.586;2023-07-13T00:44:21;6.35;;;2.20;;
38182;SDS011;23991;52.430;10.586;2023-07-13T00:46:50;6.55;;;2.67;;
38182;SDS011;23991;52.430;10.586;2023-07-13T00:49:16;3.92;;;2.15;;
38182;SDS011;23991;52.430;10.586;2023-07-13T00:54:17;3.45;;;2.00;;
38182;SDS011;23991;52.430;10.586;2023-07-13T00:56:47;4.38;;;2.00;;
38182;SDS011;23991;52.430;10.586;2023-07-13T00:59:16;6.25;;;2.10;;
38182;SDS011;23991;52.430;10.586;2023-07-13T01:01:43;7.32;;;1.98;;
38182;SDS011;23991;52.430;10.586;2023-07-13T01:04:09;5.53;;;2.20;;
38182;SDS011;23991;52.430;10.586;2023-07-13T01:06:38;5.20;;;2.20;;
38182;SDS011;23991;52.430;10.586;2023-07-13T01:09:06;3.35;;;2.17;;
38182;SDS011;23991;52.430;10.586;2023-07-13T01:11:33;4.57;;;2.55;;
38182;SDS011;23991;52.430;10.586;2023-07-13T01:14:02;4.67;;;2.40;;
38182;SDS011;23991;52.430;10.586;2023-07-13T01:16:32;4.53;;;2.33;;
38182;SDS011;23991;52.430;10.586;2023-07-13T01:18:59;4.82;;;2.33;;
38182;SDS011;23991;52.430;10.586;2023-07-13T01:21:31;5.95;;;2.40;;
38182;SDS011;23991;52.430;10.586;2023-07-13T01:23:58;5.00;;;2.63;;
38182;SDS011;23991;52.430;10.586;2023-07-13T01:26:25;4.97;;;2.70;;
38182;SDS011;23991;52.430;10.586;2023-07-13T01:28:52;5.43;;;2.33;;
38182;SDS011;23991;52.430;10.586;2023-07-13T01:31:17;6.10;;;2.45;;
38182;SDS011;23991;52.430;10.586;2023-07-13T01:33:43;4.97;;;2.67;;
38182;SDS011;23991;52.430;10.586;2023-07-13T01:36:09;5.82;;;2.50;;
38182;SDS011;23991;52.430;10.586;2023-07-13T01:38:36;4.15;;;2.47;;
38182;SDS011;23991;52.430;10.586;2023-07-13T01:41:05;4.25;;;2.30;;
38182;SDS011;23991;52.430;10.586;2023-07-13T01:43:32;6.40;;;2.90;;
38182;SDS011;23991;52.430;10.586;2023-07-13T01:45:58;8.55;;;2.67;;
38182;SDS011;23991;52.430;10.586;2023-07-13T01:48:23;5.18;;;2.17;;
38182;SDS011;23991;52.430;10.586;2023-07-13T01:50:50;6.40;;;2.95;;
38182;SDS011;23991;52.430;10.586;2023-07-13T01:53:15;3.92;;;2.45;;
38182;SDS011;23991;52.430;10.586;2023-07-13T01:55:41;4.63;;;2.35;;
38182;SDS011;23991;52.430;10.586;2023-07-13T01:58:07;8.93;;;2.60;;
38182;SDS011;23991;52.430;10.586;2023-07-13T02:00:33;4.88;;;2.30;;
38182;SDS011;23991;52.430;10.586;2023-07-13T02:02:59;5.32;;;2.33;;
38182;SDS011;23991;52.430;10.586;2023-07-13T02:05:25;6.07;;;2.60;;
38182;SDS011;23991;52.430;10.586;2023-07-13T02:07:50;6.78;;;2.80;;
38182;SDS011;23991;52.430;10.586;2023-07-13T02:10:17;7.00;;;2.30;;
38182;SDS011;23991;52.430;10.586;2023-07-13T02:12:43;4.70;;;2.50;;
38182;SDS011;23991;52.430;10.586;2023-07-13T02:15:09;6.32;;;2.80;;
38182;SDS011;23991;52.430;10.586;2023-07-13T02:17:35;3.75;;;2.40;;
38182;SDS011;23991;52.430;10.586;2023-07-13T02:20:02;3.67;;;2.30;;
38182;SDS011;23991;52.430;10.586;2023-07-13T02:22:29;5.13;;;2.40;;
38182;SDS011;23991;52.430;10.586;2023-07-13T02:24:55;4.32;;;2.50;;
38182;SDS011;23991;52.430;10.586;2023-07-13T02:27:21;4.25;;;2.60;;
38182;SDS011;23991;52.430;10.586;2023-07-13T02:29:47;3.88;;;2.42;;
38182;SDS011;23991;52.430;10.586;2023-07-13T02:32:15;6.68;;;2.40;;
38182;SDS011;23991;52.430;10.586;2023-07-13T02:34:41;5.30;;;2.58;;
38182;SDS011;23991;52.430;10.586;2023-07-13T02:37:08;5.00;;;2.40;;
38182;SDS011;23991;52.430;10.586;2023-07-13T02:39:33;5.43;;;2.75;;
38182;SDS011;23991;52.430;10.586;2023-07-13T02:41:59;4.85;;;2.40;;
38182;SDS011;23991;52.430;10.586;2023-07-13T02:44:25;6.47;;;2.80;;
38182;SDS011;23991;52.430;10.586;2023-07-13T02:46:53;4.32;;;2.50;;
38182;SDS011;23991;52.430;10.586;2023-07-13T02:49:21;5.35;;;2.60;;
38182;SDS011;23991;52.430;10.586;2023-07-13T02:51:50;4.35;;;2.30;;
38182;SDS011;23991;52.430;10.586;2023-07-13T02:54:16;4.70;;;2.53;;
38182;SDS011;23991;52.430;10.586;2023-07-13T02:56:42;5.20;;;2.20;;
38182;SDS011;23991;52.430;10.586;2023-07-13T02:59:10;4.60;;;2.63;;
38182;SDS011;23991;52.430;10.586;2023-07-13T03:01:41;4.45;;;2.50;;
38182;SDS011;23991;52.430;10.586;2023-07-13T03:04:07;6.22;;;3.00;;
38182;SDS011;23991;52.430;10.586;2023-07-13T03:06:33;3.92;;;2.20;;
38182;SDS011;23991;52.430;10.586;2023-07-13T03:08:59;4.88;;;2.95;;
38182;SDS011;23991;52.430;10.586;2023-07-13T03:11:25;6.93;;;2.53;;
38182;SDS011;23991;52.430;10.586;2023-07-13T03:13:53;6.82;;;2.75;;
38182;SDS011;23991;52.430;10.586;2023-07-13T03:16:21;4.65;;;2.78;;
38182;SDS011;23991;52.430;10.586;2023-07-13T03:18:47;7.32;;;2.50;;
38182;SDS011;23991;52.430;10.586;2023-07-13T03:21:16;4.93;;;2.47;;
38182;SDS011;23991;52.430;10.586;2023-07-13T03:23:42;3.70;;;2.60;;
38182;SDS011;23991;52.430;10.586;2023-07-13T03:26:09;6.93;;;2.65;;
38182;SDS011;23991;52.430;10.586;2023-07-13T03:31:04;3.67;;;2.35;;
38182;SDS011;23991;52.430;10.586;2023-07-13T03:33:38;7.32;;;2.88;;
38182;SDS011;23991;52.430;10.586;2023-07-13T03:36:04;5.40;;;3.10;;
38182;SDS011;23991;52.430;10.586;2023-07-13T03:38:31;4.05;;;2.85;;
38182;SDS011;23991;52.430;10.586;2023-07-13T03:41:03;5.47;;;2.33;;
38182;SDS011;23991;52.430;10.586;2023-07-13T03:43:28;11.07;;;3.33;;
38182;SDS011;23991;52.430;10.586;2023-07-13T03:45:56;6.95;;;2.47;;
38182;SDS011;23991;52.430;10.586;2023-07-13T03:48:21;5.80;;;2.60;;
38182;SDS011;23991;52.430;10.586;2023-07-13T03:50:51;4.63;;;2.55;;
38182;SDS011;23991;52.430;10.586;2023-07-13T03:53:17;5.32;;;2.60;;
38182;SDS011;23991;52.430;10.586;2023-07-13T03:55:48;4.97;;;2.42;;
38182;SDS011;23991;52.430;10.586;2023-07-13T03:58:26;5.73;;;2.37;;
38182;SDS011;23991;52.430;10.586;2023-07-13T04:01:16;4.93;;;2.45;;
38182;SDS011;23991;52.430;10.586;2023-07-13T04:03:43;4.70;;;2.70;;
38182;SDS011;23991;52.430;10.586;2023-07-13T04:06:21;9.43;;;2.70;;
38182;SDS011;23991;52.430;10.586;2023-07-13T04:08:57;8.27;;;2.80;;
38182;SDS011;23991;52.430;10.586;2023-07-13T04:11:26;7.05;;;2.17;;
38182;SDS011;23991;52.430;10.586;2023-07-13T04:13:55;7.93;;;2.60;;
38182;SDS011;23991;52.430;10.586;2023-07-13T04:16:21;6.57;;;2.55;;
38182;SDS011;23991;52.430;10.586;2023-07-13T04:18:47;6.97;;;2.15;;
38182;SDS011;23991;52.430;10.586;2023-07-13T04:21:15;4.97;;;2.08;;
38182;SDS011;23991;52.430;10.586;2023-07-13T04:23:42;5.78;;;2.20;;
38182;SDS011;23991;52.430;10.586;2023-07-13T04:26:09;6.43;;;2.20;;
38182;SDS011;23991;52.430;10.586;2023-07-13T04:28:35;3.75;;;1.98;;
38182;SDS011;23991;52.430;10.586;2023-07-13T04:31:02;4.65;;;2.10;;
38182;SDS011;23991;52.430;10.586;2023-07-13T04:33:28;7.05;;;2.30;;
38182;SDS011;23991;52.430;10.586;2023-07-13T04:35:54;4.88;;;2.00;;
38182;SDS011;23991;52.430;10.586;2023-07-13T04:38:25;5.80;;;2.28;;
38182;SDS011;23991;52.430;10.586;2023-07-13T04:40:54;8.63;;;2.97;;
38182;SDS011;23991;52.430;10.586;2023-07-13T04:43:21;5.93;;;2.40;;
38182;SDS011;23991;52.430;10.586;2023-07-13T04:45:47;6.70;;;2.63;;
38182;SDS011;23991;52.430;10.586;2023-07-13T04:48:13;5.70;;;2.28;;
38182;SDS011;23991;52.430;10.586;2023-07-13T04:50:39;5.18;;;2.20;;
38182;SDS011;23991;52.430;10.586;2023-07-13T04:53:05;5.25;;;2.00;;
38182;SDS011;23991;52.430;10.586;2023-07-13T04:55:32;4.55;;;2.05;;
38182;SDS011;23991;52.430;10.586;2023-07-13T04:57:58;5.40;;;2.38;;
38182;SDS011;23991;52.430;10.586;2023-07-13T05:00:25;6.05;;;2.25;;
38182;SDS011;23991;52.430;10.586;2023-07-13T05:02:51;4.95;;;2.25;;
38182;SDS011;23991;52.430;10.586;2023-07-13T05:05:19;4.93;;;2.08;;
38182;SDS011;23991;52.430;10.586;2023-07-13T05:07:45;7.60;;;2.17;;
38182;SDS011;23991;52.430;10.586;2023-07-13T05:10:10;3.95;;;2.10;;
38182;SDS011;23991;52.430;10.586;2023-07-13T05:12:36;6.53;;;1.95;;
38182;SDS011;23991;52.430;10.586;2023-07-13T05:15:05;5.57;;;2.25;;
38182;SDS011;23991;52.430;10.586;2023-07-13T05:17:35;7.82;;;2.22;;
38182;SDS011;23991;52.430;10.586;2023-07-13T05:20:00;3.45;;;2.08;;
38182;SDS011;23991;52.430;10.586;2023-07-13T05:22:27;7.40;;;2.17;;
38182;SDS011;23991;52.430;10.586;2023-07-13T05:24:52;3.92;;;1.92;;
38182;SDS011;23991;52.430;10.586;2023-07-13T05:27:18;4.47;;;1.92;;
38182;SDS011;23991;52.430;10.586;2023-07-13T05:29:43;8.63;;;2.05;;
38182;SDS011;23991;52.430;10.586;2023-07-13T05:32:09;5.75;;;2.13;;
38182;SDS011;23991;52.430;10.586;2023-07-13T05:34:35;7.22;;;2.40;;
38182;SDS011;23991;52.430;10.586;2023-07-13T05:37:01;4.25;;;2.08;;
38182;SDS011;23991;52.430;10.586;2023-07-13T05:39:26;6.10;;;2.00;;
38182;SDS011;23991;52.430;10.586;2023-07-13T05:41:52;8.57;;;2.20;;
38182;SDS011;23991;52.430;10.586;2023-07-13T05:44:18;7.63;;;1.70;;
38182;SDS011;23991;52.430;10.586;2023-07-13T05:46:45;3.25;;;1.67;;
38182;SDS011;23991;52.430;10.586;2023-07-13T05:49:11;5.10;;;2.10;;
38182;SDS011;23991;52.430;10.586;2023-07-13T05:51:37;7.97;;;2.40;;
38182;SDS011;23991;52.430;10.586;2023-07-13T05:54:05;5.22;;;2.00;;
38182;SDS011;23991;52.430;10.586;2023-07-13T05:56:35;8.50;;;1.85;;
38182;SDS011;23991;52.430;10.586;2023-07-13T05:59:01;6.68;;;2.10;;
38182;SDS011;23991;52.430;10.586;2023-07-13T06:01:26;8.40;;;2.00;;
38182;SDS011;23991;52.430;10.586;2023-07-13T06:03:52;8.40;;;2.00;;
38182;SDS011;23991;52.430;10.586;2023-07-13T06:06:18;5.28;;;2.10;;
38182;SDS011;23991;52.430;10.586;2023-07-13T06:08:44;6.55;;;2.20;;
38182;SDS011;23991;52.430;10.586;2023-07-13T06:11:15;7.13;;;1.85;;
38182;SDS011;23991;52.430;10.586;2023-07-13T06:13:43;6.80;;;2.10;;
38182;SDS011;23991;52.430;10.586;2023-07-13T06:16:09;4.13;;;1.75;;
38182;SDS011;23991;52.430;10.586;2023-07-13T06:18:36;7.70;;;2.35;;
38182;SDS011;23991;52.430;10.586;2023-07-13T06:21:11;4.85;;;2.15;;
38182;SDS011;23991;52.430;10.586;2023-07-13T06:23:52;5.95;;;2.10;;
38182;SDS011;23991;52.430;10.586;2023-07-13T06:26:18;3.97;;;1.83;;
38182;SDS011;23991;52.430;10.586;2023-07-13T06:28:46;5.60;;;1.95;;
38182;SDS011;23991;52.430;10.586;2023-07-13T06:31:13;4.43;;;2.10;;
38182;SDS011;23991;52.430;10.586;2023-07-13T06:33:40;6.68;;;1.80;;
38182;SDS011;23991;52.430;10.586;2023-07-13T06:36:06;4.55;;;1.92;;
38182;SDS011;23991;52.430;10.586;2023-07-13T06:38:33;8.20;;;3.00;;
38182;SDS011;23991;52.430;10.586;2023-07-13T06:41:00;7.85;;;1.77;;
38182;SDS011;23991;52.430;10.586;2023-07-13T06:43:26;9.75;;;2.67;;
38182;SDS011;23991;52.430;10.586;2023-07-13T06:45:53;6.60;;;2.05;;
38182;SDS011;23991;52.430;10.586;2023-07-13T06:48:20;7.00;;;2.60;;
38182;SDS011;23991;52.430;10.586;2023-07-13T06:50:47;4.10;;;1.85;;
38182;SDS011;23991;52.430;10.586;2023-07-13T06:53:15;8.68;;;1.98;;
38182;SDS011;23991;52.430;10.586;2023-07-13T06:55:43;7.32;;;2.13;;
38182;SDS011;23991;52.430;10.586;2023-07-13T06:58:10;5.45;;;1.85;;
38182;SDS011;23991;52.430;10.586;2023-07-13T07:00:40;5.50;;;1.92;;
38182;SDS011;23991;52.430;10.586;2023-07-13T07:03:06;8.32;;;2.20;;
38182;SDS011;23991;52.430;10.586;2023-07-13T07:05:35;7.53;;;2.33;;
38182;SDS011;23991;52.430;10.586;2023-07-13T07:08:00;11.57;;;2.53;;
38182;SDS011;23991;52.430;10.586;2023-07-13T07:10:26;7.80;;;2.53;;
38182;SDS011;23991;52.430;10.586;2023-07-13T07:12:54;7.55;;;2.25;;
38182;SDS011;23991;52.430;10.586;2023-07-13T07:15:20;8.88;;;2.33;;
38182;SDS011;23991;52.430;10.586;2023-07-13T07:17:46;6.10;;;2.00;;
38182;SDS011;23991;52.430;10.586;2023-07-13T07:20:13;6.60;;;2.30;;
38182;SDS011;23991;52.430;10.586;2023-07-13T07:22:38;8.18;;;2.78;;
38182;SDS011;23991;52.430;10.586;2023-07-13T07:25:07;7.72;;;2.30;;
38182;SDS011;23991;52.430;10.586;2023-07-13T07:27:33;8.77;;;2.28;;
38182;SDS011;23991;52.430;10.586;2023-07-13T07:30:00;6.47;;;1.90;;
38182;SDS011;23991;52.430;10.586;2023-07-13T07:32:28;6.18;;;2.20;;
38182;SDS011;23991;52.430;10.586;2023-07-13T07:34:55;6.38;;;2.20;;
38182;SDS011;23991;52.430;10.586;2023-07-13T07:37:21;5.53;;;2.20;;
38182;SDS011;23991;52.430;10.586;2023-07-13T07:39:49;10.70;;;2.28;;
38182;SDS011;23991;52.430;10.586;2023-07-13T07:42:16;4.53;;;2.03;;
38182;SDS011;23991;52.430;10.586;2023-07-13T07:44:42;6.22;;;1.85;;
38182;SDS011;23991;52.430;10.586;2023-07-13T07:47:08;5.65;;;2.15;;
38182;SDS011;23991;52.430;10.586;2023-07-13T07:49:36;8.35;;;2.78;;
38182;SDS011;23991;52.430;10.586;2023-07-13T07:52:01;5.63;;;1.70;;
38182;SDS011;23991;52.430;10.586;2023-07-13T07:54:28;6.43;;;2.00;;
38182;SDS011;23991;52.430;10.586;2023-07-13T07:56:55;5.78;;;2.17;;
38182;SDS011;23991;52.430;10.586;2023-07-13T07:59:21;7.07;;;2.10;;
38182;SDS011;23991;52.430;10.586;2023-07-13T08:01:47;6.10;;;2.10;;
38182;SDS011;23991;52.430;10.586;2023-07-13T08:04:17;6.65;;;1.85;;
38182;SDS011;23991;52.430;10.586;2023-07-13T08:06:42;5.85;;;1.92;;
38182;SDS011;23991;52.430;10.586;2023-07-13T08:09:08;15.38;;;2.60;;
38182;SDS011;23991;52.430;10.586;2023-07-13T08:11:34;6.68;;;2.17;;
38182;SDS011;23991;52.430;10.586;2023-07-13T08:13:59;6.80;;;2.47;;
38182;SDS011;23991;52.430;10.586;2023-07-13T08:16:26;4.75;;;1.92;;
38182;SDS011;23991;52.430;10.586;2023-07-13T08:18:54;6.43;;;2.17;;
38182;SDS011;23991;52.430;10.586;2023-07-13T08:21:21;7.25;;;2.00;;
38182;SDS011;23991;52.430;10.586;2023-07-13T08:23:47;5.93;;;2.08;;
38182;SDS011;23991;52.430;10.586;2023-07-13T08:26:12;7.00;;;2.08;;
38182;SDS011;23991;52.430;10.586;2023-07-13T08:28:38;6.63;;;2.35;;
38182;SDS011;23991;52.430;10.586;2023-07-13T08:31:05;6.25;;;1.83;;
38182;SDS011;23991;52.430;10.586;2023-07-13T08:33:35;6.70;;;2.08;;
38182;SDS011;23991;52.430;10.586;2023-07-13T08:36:03;6.40;;;1.90;;
38182;SDS011;23991;52.430;10.586;2023-07-13T08:38:30;7.72;;;1.77;;
38182;SDS011;23991;52.430;10.586;2023-07-13T08:40:56;6.15;;;1.90;;
38182;SDS011;23991;52.430;10.586;2023-07-13T08:43:34;4.28;;;1.80;;
38182;SDS011;23991;52.430;10.586;2023-07-13T08:48:56;7.30;;;1.95;;
38182;SDS011;23991;52.430;10.586;2023-07-13T08:51:35;4.70;;;1.92;;
38182;SDS011;23991;52.430;10.586;2023-07-13T08:54:14;4.80;;;1.80;;
38182;SDS011;23991;52.430;10.586;2023-07-13T08:57:03;9.73;;;1.80;;
38182;SDS011;23991;52.430;10.586;2023-07-13T08:59:38;5.88;;;2.25;;
38182;SDS011;23991;52.430;10.586;2023-07-13T09:02:25;5.10;;;1.88;;
38182;SDS011;23991;52.430;10.586;2023-07-13T09:04:59;6.35;;;2.28;;
38182;SDS011;23991;52.430;10.586;2023-07-13T09:16:04;7.57;;;2.08;;
38182;SDS011;23991;52.430;10.586;2023-07-13T09:18:49;5.22;;;2.30;;
38182;SDS011;23991;52.430;10.586;2023-07-13T09:21:21;3.00;;;1.60;;
38182;SDS011;23991;52.430;10.586;2023-07-13T09:23:54;6.32;;;2.20;;
38182;SDS011;23991;52.430;10.586;2023-07-13T09:26:26;5.40;;;2.00;;
38182;SDS011;23991;52.430;10.586;2023-07-13T09:29:03;3.30;;;1.70;;
38182;SDS011;23991;52.430;10.586;2023-07-13T09:31:47;6.57;;;2.05;;
38182;SDS011;23991;52.430;10.586;2023-07-13T09:34:18;4.63;;;1.70;;
38182;SDS011;23991;52.430;10.586;2023-07-13T09:36:44;4.93;;;1.88;;
38182;SDS011;23991;52.430;10.586;2023-07-13T09:39:27;3.85;;;1.80;;
38182;SDS011;23991;52.430;10.586;2023-07-13T09:44:37;5.82;;;1.80;;
38182;SDS011;23991;52.430;10.586;2023-07-13T09:47:26;6.28;;;1.65;;
38182;SDS011;23991;52.430;10.586;2023-07-13T09:52:25;5.78;;;1.40;;
38182;SDS011;23991;52.430;10.586;2023-07-13T09:54:53;5.38;;;1.77;;
38182;SDS011;23991;52.430;10.586;2023-07-13T09:57:25;4.70;;;1.67;;
38182;SDS011;23991;52.430;10.586;2023-07-13T09:59:52;2.97;;;1.40;;
38182;SDS011;23991;52.430;10.586;2023-07-13T10:05:01;7.57;;;2.13;;
38182;SDS011;23991;52.430;10.586;2023-07-13T10:07:30;7.18;;;1.90;;
38182;SDS011;23991;52.430;10.586;2023-07-13T10:10:00;4.63;;;1.63;;
38182;SDS011;23991;52.430;10.586;2023-07-13T10:12:28;4.85;;;1.67;;
38182;SDS011;23991;52.430;10.586;2023-07-13T10:14:58;5.50;;;1.60;;
38182;SDS011;23991;52.430;10.586;2023-07-13T10:17:34;5.70;;;1.70;;
38182;SDS011;23991;52.430;10.586;2023-07-13T10:20:01;4.43;;;1.77;;
38182;SDS011;23991;52.430;10.586;2023-07-13T10:22:44;5.65;;;1.80;;
38182;SDS011;23991;52.430;10.586;2023-07-13T10:25:25;4.38;;;1.70;;
38182;SDS011;23991;52.430;10.586;2023-07-13T10:28:02;3.60;;;1.50;;
38182;SDS011;23991;52.430;10.586;2023-07-13T10:30:38;4.63;;;1.73;;
38182;SDS011;23991;52.430;10.586;2023-07-13T10:33:10;4.55;;;1.70;;
38182;SDS011;23991;52.430;10.586;2023-07-13T10:35:37;3.50;;;1.70;;
38182;SDS011;23991;52.430;10.586;2023-07-13T10:38:18;5.72;;;1.67;;
38182;SDS011;23991;52.430;10.586;2023-07-13T10:40:51;3.58;;;1.65;;
38182;SDS011;23991;52.430;10.586;2023-07-13T10:43:44;4.55;;;1.70;;
38182;SDS011;23991;52.430;10.586;2023-07-13T10:46:15;5.13;;;2.00;;
38182;SDS011;23991;52.430;10.586;2023-07-13T10:48:43;6.43;;;1.50;;
38182;SDS011;23991;52.430;10.586;2023-07-13T10:51:13;6.63;;;1.73;;
38182;SDS011;23991;52.430;10.586;2023-07-13T10:53:40;4.82;;;1.90;;
38182;SDS011;23991;52.430;10.586;2023-07-13T10:56:22;4.47;;;1.70;;
38182;SDS011;23991;52.430;10.586;2023-07-13T10:59:02;5.18;;;1.90;;
38182;SDS011;23991;52.430;10.586;2023-07-13T11:04:22;5.35;;;1.77;;
38182;SDS011;23991;52.430;10.586;2023-07-13T11:06:52;3.75;;;1.55;;
38182;SDS011;23991;52.430;10.586;2023-07-13T11:11:58;3.55;;;1.30;;
38182;SDS011;23991;52.430;10.586;2023-07-13T11:14:26;3.72;;;1.48;;
38182;SDS011;23991;52.430;10.586;2023-07-13T11:16:52;3.45;;;1.75;;
38182;SDS011;23991;52.430;10.586;2023-07-13T11:22:09;3.38;;;1.60;;
38182;SDS011;23991;52.430;10.586;2023-07-13T11:38:47;4.85;;;1.70;;
38182;SDS011;23991;52.430;10.586;2023-07-13T11:41:36;4.88;;;1.70;;
38182;SDS011;23991;52.430;10.586;2023-07-13T11:44:16;5.97;;;1.90;;
38182;SDS011;23991;52.430;10.586;2023-07-13T11:46:45;3.83;;;1.67;;
38182;SDS011;23991;52.430;10.586;2023-07-13T11:49:15;16.50;;;2.42;;
38182;SDS011;23991;52.430;10.586;2023-07-13T11:51:41;4.70;;;1.77;;
38182;SDS011;23991;52.430;10.586;2023-07-13T11:56:50;4.13;;;1.58;;
38182;SDS011;23991;52.430;10.586;2023-07-13T11:59:19;4.22;;;1.50;;
38182;SDS011;23991;52.430;10.586;2023-07-13T12:01:47;6.10;;;1.70;;
38182;SDS011;23991;52.430;10.586;2023-07-13T12:04:27;3.75;;;1.63;;
38182;SDS011;23991;52.430;10.586;2023-07-13T12:07:04;3.97;;;1.60;;
38182;SDS011;23991;52.430;10.586;2023-07-13T12:09:34;4.80;;;1.80;;
38182;SDS011;23991;52.430;10.586;2023-07-13T12:12:02;3.80;;;1.70;;
38182;SDS011;23991;52.430;10.586;2023-07-13T12:14:28;3.85;;;1.52;;
38182;SDS011;23991;52.430;10.586;2023-07-13T12:16:53;2.85;;;1.60;;
38182;SDS011;23991;52.430;10.586;2023-07-13T12:19:20;3.35;;;1.45;;
38182;SDS011;23991;52.430;10.586;2023-07-13T12:21:48;3.58;;;1.80;;
38182;SDS011;23991;52.430;10.586;2023-07-13T12:24:19;5.50;;;2.13;;
38182;SDS011;23991;52.430;10.586;2023-07-13T12:26:54;4.40;;;1.60;;
38182;SDS011;23991;52.430;10.586;2023-07-13T12:29:29;3.65;;;1.80;;
38182;SDS011;23991;52.430;10.586;2023-07-13T12:31:56;3.80;;;1.95;;
38182;SDS011;23991;52.430;10.586;2023-07-13T12:34:23;3.90;;;1.77;;
38182;SDS011;23991;52.430;10.586;2023-07-13T12:37:00;3.22;;;1.80;;
38182;SDS011;23991;52.430;10.586;2023-07-13T12:39:37;5.07;;;1.55;;
38182;SDS011;23991;52.430;10.586;2023-07-13T12:42:16;7.13;;;2.20;;
38182;SDS011;23991;52.430;10.586;2023-07-13T12:44:45;5.55;;;1.73;;
38182;SDS011;23991;52.430;10.586;2023-07-13T12:47:12;3.17;;;1.73;;
38182;SDS011;23991;52.430;10.586;2023-07-13T12:49:50;2.50;;;1.40;;
38182;SDS011;23991;52.430;10.586;2023-07-13T12:52:29;2.83;;;1.63;;
38182;SDS011;23991;52.430;10.586;2023-07-13T12:54:59;4.55;;;1.77;;
38182;SDS011;23991;52.430;10.586;2023-07-13T12:57:47;4.28;;;1.70;;
38182;SDS011;23991;52.430;10.586;2023-07-13T13:02:52;3.53;;;1.80;;
38182;SDS011;23991;52.430;10.586;2023-07-13T13:05:20;4.10;;;1.58;;
38182;SDS011;23991;52.430;10.586;2023-07-13T13:07:48;4.93;;;1.90;;
38182;SDS011;23991;52.430;10.586;2023-07-13T13:10:18;2.90;;;1.50;;
38182;SDS011;23991;52.430;10.586;2023-07-13T13:12:46;4.03;;;1.73;;
38182;SDS011;23991;52.430;10.586;2023-07-13T13:15:12;3.35;;;1.50;;
38182;SDS011;23991;52.430;10.586;2023-07-13T13:17:44;4.07;;;1.63;;
38182;SDS011;23991;52.430;10.586;2023-07-13T13:20:20;3.97;;;1.90;;
38182;SDS011;23991;52.430;10.586;2023-07-13T13:22:46;3.45;;;1.67;;
38182;SDS011;23991;52.430;10.586;2023-07-13T13:25:13;4.65;;;1.65;;
38182;SDS011;23991;52.430;10.586;2023-07-13T13:27:42;4.07;;;1.73;;
38182;SDS011;23991;52.430;10.586;2023-07-13T13:32:37;3.42;;;1.95;;
38182;SDS011;23991;52.430;10.586;2023-07-13T13:35:17;4.90;;;1.90;;
38182;SDS011;23991;52.430;10.586;2023-07-13T13:37:45;4.60;;;1.95;;
38182;SDS011;23991;52.430;10.586;2023-07-13T13:40:16;3.15;;;1.88;;
38182;SDS011;23991;52.430;10.586;2023-07-13T13:42:44;5.90;;;1.50;;
38182;SDS011;23991;52.430;10.586;2023-07-13T13:45:10;4.68;;;1.67;;
38182;SDS011;23991;52.430;10.586;2023-07-13T13:47:42;8.45;;;2.10;;
38182;SDS011;23991;52.430;10.586;2023-07-13T13:50:11;3.95;;;1.90;;
38182;SDS011;23991;52.430;10.586;2023-07-13T13:52:37;7.28;;;1.70;;
38182;SDS011;23991;52.430;10.586;2023-07-13T13:55:05;3.15;;;1.70;;
38182;SDS011;23991;52.430;10.586;2023-07-13T13:57:37;5.70;;;1.80;;
38182;SDS011;23991;52.430;10.586;2023-07-13T14:00:03;2.72;;;1.50;;
38182;SDS011;23991;52.430;10.586;2023-07-13T14:02:30;5.13;;;1.85;;
38182;SDS011;23991;52.430;10.586;2023-07-13T14:04:58;3.65;;;1.75;;
38182;SDS011;23991;52.430;10.586;2023-07-13T14:07:27;4.78;;;1.88;;
38182;SDS011;23991;52.430;10.586;2023-07-13T14:09:56;6.63;;;2.17;;
38182;SDS011;23991;52.430;10.586;2023-07-13T14:12:23;7.47;;;2.90;;
38182;SDS011;23991;52.430;10.586;2023-07-13T14:14:53;6.80;;;2.20;;
38182;SDS011;23991;52.430;10.586;2023-07-13T14:17:24;3.72;;;1.83;;
38182;SDS011;23991;52.430;10.586;2023-07-13T14:19:52;5.75;;;2.10;;
38182;SDS011;23991;52.430;10.586;2023-07-13T14:22:23;5.07;;;1.90;;
38182;SDS011;23991;52.430;10.586;2023-07-13T14:27:22;2.70;;;1.63;;
38182;SDS011;23991;52.430;10.586;2023-07-13T14:29:50;4.70;;;1.58;;
38182;SDS011;23991;52.430;10.586;2023-07-13T14:32:16;3.33;;;1.95;;
38182;SDS011;23991;52.430;10.586;2023-07-13T14:34:42;2.70;;;1.80;;
38182;SDS011;23991;52.430;10.586;2023-07-13T14:37:14;3.45;;;1.88;;
38182;SDS011;23991;52.430;10.586;2023-07-13T14:39:42;4.70;;;1.83;;
38182;SDS011;23991;52.430;10.586;2023-07-13T14:42:09;6.68;;;1.90;;
38182;SDS011;23991;52.430;10.586;2023-07-13T14:44:37;5.70;;;2.15;;
38182;SDS011;23991;52.430;10.586;2023-07-13T14:52:05;4.35;;;1.92;;
38182;SDS011;23991;52.430;10.586;2023-07-13T14:54:37;4.28;;;2.00;;
38182;SDS011;23991;52.430;10.586;2023-07-13T14:57:08;5.40;;;1.60;;
38182;SDS011;23991;52.430;10.586;2023-07-13T14:59:38;4.30;;;1.65;;
38182;SDS011;23991;52.430;10.586;2023-07-13T15:04:56;4.00;;;1.50;;
38182;SDS011;23991;52.430;10.586;2023-07-13T15:07:22;4.38;;;2.00;;
38182;SDS011;23991;52.430;10.586;2023-07-13T15:09:49;3.15;;;1.95;;
38182;SDS011;23991;52.430;10.586;2023-07-13T15:12:16;4.57;;;1.80;;
38182;SDS011;23991;52.430;10.586;2023-07-13T15:14:42;4.88;;;1.48;;
38182;SDS011;23991;52.430;10.586;2023-07-13T15:17:53;3.08;;;1.70;;
38182;SDS011;23991;52.430;10.586;2023-07-13T15:20:14;2.53;;;1.50;;
38182;SDS011;23991;52.430;10.586;2023-07-13T15:22:47;5.32;;;1.92;;
38182;SDS011;23991;52.430;10.586;2023-07-13T15:25:18;4.07;;;1.60;;
38182;SDS011;23991;52.430;10.586;2023-07-13T15:27:45;3.97;;;1.88;;
38182;SDS011;23991;52.430;10.586;2023-07-13T15:30:11;3.95;;;1.70;;
38182;SDS011;23991;52.430;10.586;2023-07-13T15:32:38;3.67;;;1.92;;
38182;SDS011;23991;52.430;10.586;2023-07-13T15:35:05;3.72;;;1.70;;
38182;SDS011;23991;52.430;10.586;2023-07-13T15:37:37;3.00;;;1.65;;
38182;SDS011;23991;52.430;10.586;2023-07-13T15:40:03;3.88;;;1.92;;
38182;SDS011;23991;52.430;10.586;2023-07-13T15:42:29;5.72;;;2.17;;
38182;SDS011;23991;52.430;10.586;2023-07-13T15:44:56;4.80;;;1.80;;
38182;SDS011;23991;52.430;10.586;2023-07-13T15:47:23;4.78;;;1.60;;
38182;SDS011;23991;52.430;10.586;2023-07-13T15:49:52;3.37;;;1.70;;